sensor_id;sensor_type;location;lat;lon;timestamp;P1;durP1;ratioP1;P2;durP2;ratioP2
10007;SDS011;5043;41.766;26.204;2022-09-03T00:01:45;38.17;;;27.13;;
10007;SDS011;5043;41.766;26.204;2022-09-03T00:04:31;32.65;;;26.58;;
10007;SDS011;5043;41.766;26.204;2022-09-03T00:07:19;33.50;;;25.63;;
10007;SDS011;5043;41.766;26.204;2022-09-03T00:09:54;33.47;;;27.70;;
10007;SDS011;5043;41.766;26.204;2022-09-03T00:12:28;33.35;;;25.33;;
10007;SDS011;5043;41.766;26.204;2022-09-03T00:15:05;33.40;;;25.98;;
10007;SDS011;5043;41.766;26.204;2022-09-03T00:17:40;35.03;;;25.75;;
10007;SDS011;5043;41.766;26.204;2022-09-03T00:22:50;35.35;;;25.27;;
10007;SDS011;5043;41.766;26.204;2022-09-03T00:25:20;27.30;;;22.85;;
10007;SDS011;5043;41.766;26.204;2022-09-03T00:27:58;27.60;;;19.92;;
10007;SDS011;5043;41.766;26.204;2022-09-03T00:30:29;25.60;;;20.40;;
10007;SDS011;5043;41.766;26.204;2022-09-03T00:32:58;23.73;;;19.42;;
10007;SDS011;5043;41.766;26.204;2022-09-03T00:35:32;24.27;;;19.02;;
10007;SDS011;5043;41.766;26.204;2022-09-03T00:38:01;27.60;;;20.25;;
10007;SDS011;5043;41.766;26.204;2022-09-03T00:43:20;19.02;;;17.02;;
10007;SDS011;5043;41.766;26.204;2022-09-03T00:48:49;24.08;;;18.52;;
10007;SDS011;5043;41.766;26.204;2022-09-03T00:54:26;24.25;;;20.23;;
10007;SDS011;5043;41.766;26.204;2022-09-03T01:13:42;27.02;;;23.65;;
10007;SDS011;5043;41.766;26.204;2022-09-03T01:16:31;33.88;;;25.35;;
10007;SDS011;5043;41.766;26.204;2022-09-03T01:19:08;30.45;;;25.20;;
10007;SDS011;5043;41.766;26.204;2022-09-03T01:24:25;26.33;;;22.63;;
10007;SDS011;5043;41.766;26.204;2022-09-03T01:27:31;26.73;;;21.52;;
10007;SDS011;5043;41.766;26.204;2022-09-03T01:30:12;26.27;;;21.80;;
10007;SDS011;5043;41.766;26.204;2022-09-03T01:35:25;26.38;;;21.23;;
10007;SDS011;5043;41.766;26.204;2022-09-03T01:38:07;28.20;;;22.15;;
10007;SDS011;5043;41.766;26.204;2022-09-03T01:40:51;22.17;;;19.80;;
10007;SDS011;5043;41.766;26.204;2022-09-03T01:44:07;24.98;;;20.48;;
10007;SDS011;5043;41.766;26.204;2022-09-03T01:46:52;22.58;;;20.20;;
10007;SDS011;5043;41.766;26.204;2022-09-03T01:52:16;23.65;;;19.67;;
10007;SDS011;5043;41.766;26.204;2022-09-03T02:00:37;17.65;;;16.05;;
10007;SDS011;5043;41.766;26.204;2022-09-03T02:03:07;17.90;;;16.10;;
10007;SDS011;5043;41.766;26.204;2022-09-03T02:05:38;16.73;;;14.98;;
10007;SDS011;5043;41.766;26.204;2022-09-03T02:08:05;17.63;;;15.65;;
10007;SDS011;5043;41.766;26.204;2022-09-03T02:13:25;16.75;;;14.95;;
10007;SDS011;5043;41.766;26.204;2022-09-03T02:15:55;15.68;;;14.07;;
10007;SDS011;5043;41.766;26.204;2022-09-03T02:21:01;15.80;;;14.40;;
10007;SDS011;5043;41.766;26.204;2022-09-03T02:23:27;16.92;;;13.40;;
10007;SDS011;5043;41.766;26.204;2022-09-03T02:26:00;14.50;;;13.15;;
10007;SDS011;5043;41.766;26.204;2022-09-03T02:28:29;17.55;;;13.73;;
10007;SDS011;5043;41.766;26.204;2022-09-03T02:30:56;15.15;;;13.57;;
10007;SDS011;5043;41.766;26.204;2022-09-03T02:33:22;15.05;;;13.55;;
10007;SDS011;5043;41.766;26.204;2022-09-03T02:35:47;15.70;;;13.95;;
10007;SDS011;5043;41.766;26.204;2022-09-03T02:38:17;15.90;;;13.85;;
10007;SDS011;5043;41.766;26.204;2022-09-03T02:40:45;16.65;;;12.93;;
10007;SDS011;5043;41.766;26.204;2022-09-03T02:43:16;16.08;;;14.15;;
10007;SDS011;5043;41.766;26.204;2022-09-03T02:45:46;15.70;;;14.20;;
10007;SDS011;5043;41.766;26.204;2022-09-03T02:48:15;15.50;;;14.00;;
10007;SDS011;5043;41.766;26.204;2022-09-03T02:50:45;15.80;;;14.20;;
10007;SDS011;5043;41.766;26.204;2022-09-03T02:53:11;16.33;;;14.60;;
10007;SDS011;5043;41.766;26.204;2022-09-03T02:55:36;20.40;;;15.50;;
10007;SDS011;5043;41.766;26.204;2022-09-03T02:58:02;19.27;;;15.10;;
10007;SDS011;5043;41.766;26.204;2022-09-03T03:00:31;16.90;;;15.13;;
10007;SDS011;5043;41.766;26.204;2022-09-03T03:02:57;17.60;;;15.73;;
10007;SDS011;5043;41.766;26.204;2022-09-03T03:05:29;17.40;;;15.63;;
10007;SDS011;5043;41.766;26.204;2022-09-03T03:08:17;17.83;;;15.95;;
10007;SDS011;5043;41.766;26.204;2022-09-03T03:10:48;21.10;;;16.85;;
10007;SDS011;5043;41.766;26.204;2022-09-03T03:13:16;20.88;;;17.45;;
10007;SDS011;5043;41.766;26.204;2022-09-03T03:15:42;22.92;;;17.48;;
10007;SDS011;5043;41.766;26.204;2022-09-03T03:18:08;22.13;;;19.40;;
10007;SDS011;5043;41.766;26.204;2022-09-03T03:20:39;19.55;;;17.65;;
10007;SDS011;5043;41.766;26.204;2022-09-03T03:23:05;21.13;;;18.90;;
10007;SDS011;5043;41.766;26.204;2022-09-03T03:25:32;20.23;;;18.13;;
10007;SDS011;5043;41.766;26.204;2022-09-03T03:28:01;21.00;;;18.90;;
10007;SDS011;5043;41.766;26.204;2022-09-03T03:30:31;20.88;;;17.67;;
10007;SDS011;5043;41.766;26.204;2022-09-03T03:33:17;20.58;;;18.50;;
10007;SDS011;5043;41.766;26.204;2022-09-03T03:35:43;21.08;;;17.63;;
10007;SDS011;5043;41.766;26.204;2022-09-03T03:38:08;20.10;;;17.40;;
10007;SDS011;5043;41.766;26.204;2022-09-03T03:40:36;20.10;;;17.92;;
10007;SDS011;5043;41.766;26.204;2022-09-03T03:43:13;24.75;;;18.13;;
10007;SDS011;5043;41.766;26.204;2022-09-03T03:45:38;20.90;;;18.88;;
10007;SDS011;5043;41.766;26.204;2022-09-03T03:48:03;20.85;;;18.35;;
10007;SDS011;5043;41.766;26.204;2022-09-03T03:50:29;20.42;;;18.30;;
10007;SDS011;5043;41.766;26.204;2022-09-03T03:52:58;21.73;;;17.85;;
10007;SDS011;5043;41.766;26.204;2022-09-03T03:55:25;20.38;;;17.40;;
10007;SDS011;5043;41.766;26.204;2022-09-03T03:57:50;22.52;;;19.45;;
10007;SDS011;5043;41.766;26.204;2022-09-03T04:00:16;19.25;;;17.15;;
10007;SDS011;5043;41.766;26.204;2022-09-03T04:02:41;19.40;;;17.50;;
10007;SDS011;5043;41.766;26.204;2022-09-03T04:05:07;19.05;;;17.13;;
10007;SDS011;5043;41.766;26.204;2022-09-03T04:07:33;19.00;;;16.30;;
10007;SDS011;5043;41.766;26.204;2022-09-03T04:09:58;18.80;;;16.85;;
10007;SDS011;5043;41.766;26.204;2022-09-03T04:12:23;19.05;;;16.85;;
10007;SDS011;5043;41.766;26.204;2022-09-03T04:14:51;17.83;;;16.02;;
10007;SDS011;5043;41.766;26.204;2022-09-03T04:17:17;17.90;;;16.10;;
10007;SDS011;5043;41.766;26.204;2022-09-03T04:19:42;18.58;;;16.85;;
10007;SDS011;5043;41.766;26.204;2022-09-03T04:22:07;20.30;;;17.75;;
10007;SDS011;5043;41.766;26.204;2022-09-03T04:24:33;18.55;;;16.70;;
10007;SDS011;5043;41.766;26.204;2022-09-03T04:26:59;19.77;;;16.80;;
10007;SDS011;5043;41.766;26.204;2022-09-03T04:29:25;20.20;;;17.45;;
10007;SDS011;5043;41.766;26.204;2022-09-03T04:31:50;18.17;;;16.10;;
10007;SDS011;5043;41.766;26.204;2022-09-03T04:34:34;17.77;;;16.08;;
10007;SDS011;5043;41.766;26.204;2022-09-03T04:37:00;19.13;;;17.40;;
10007;SDS011;5043;41.766;26.204;2022-09-03T04:39:25;17.80;;;16.13;;
10007;SDS011;5043;41.766;26.204;2022-09-03T04:41:51;19.85;;;17.75;;
10007;SDS011;5043;41.766;26.204;2022-09-03T04:44:16;19.02;;;17.08;;
10007;SDS011;5043;41.766;26.204;2022-09-03T04:46:42;17.50;;;15.73;;
10007;SDS011;5043;41.766;26.204;2022-09-03T04:49:08;18.00;;;16.27;;
10007;SDS011;5043;41.766;26.204;2022-09-03T04:51:33;17.85;;;16.15;;
10007;SDS011;5043;41.766;26.204;2022-09-03T04:54:02;23.98;;;17.30;;
10007;SDS011;5043;41.766;26.204;2022-09-03T04:56:28;17.35;;;15.80;;
10007;SDS011;5043;41.766;26.204;2022-09-03T04:59:00;18.50;;;16.73;;
10007;SDS011;5043;41.766;26.204;2022-09-03T05:01:30;20.55;;;16.27;;
10007;SDS011;5043;41.766;26.204;2022-09-03T05:03:57;15.45;;;13.95;;
10007;SDS011;5043;41.766;26.204;2022-09-03T05:06:24;16.98;;;13.55;;
10007;SDS011;5043;41.766;26.204;2022-09-03T05:08:50;16.10;;;12.43;;
10007;SDS011;5043;41.766;26.204;2022-09-03T05:11:17;19.00;;;13.70;;
10007;SDS011;5043;41.766;26.204;2022-09-03T05:13:45;13.45;;;12.23;;
10007;SDS011;5043;41.766;26.204;2022-09-03T05:16:13;13.05;;;11.80;;
10007;SDS011;5043;41.766;26.204;2022-09-03T05:18:38;15.93;;;13.65;;
10007;SDS011;5043;41.766;26.204;2022-09-03T05:21:09;16.88;;;12.20;;
10007;SDS011;5043;41.766;26.204;2022-09-03T05:23:37;13.77;;;12.55;;
10007;SDS011;5043;41.766;26.204;2022-09-03T05:26:05;15.98;;;12.55;;
10007;SDS011;5043;41.766;26.204;2022-09-03T05:28:33;14.57;;;12.95;;
10007;SDS011;5043;41.766;26.204;2022-09-03T05:33:36;14.75;;;12.80;;
10007;SDS011;5043;41.766;26.204;2022-09-03T05:36:13;19.33;;;14.77;;
10007;SDS011;5043;41.766;26.204;2022-09-03T05:38:40;13.98;;;12.65;;
10007;SDS011;5043;41.766;26.204;2022-09-03T05:41:07;14.63;;;11.98;;
10007;SDS011;5043;41.766;26.204;2022-09-03T05:43:34;12.85;;;11.00;;
10007;SDS011;5043;41.766;26.204;2022-09-03T05:46:01;13.90;;;12.45;;
10007;SDS011;5043;41.766;26.204;2022-09-03T05:48:30;14.50;;;13.02;;
10007;SDS011;5043;41.766;26.204;2022-09-03T05:51:04;14.65;;;11.98;;
10007;SDS011;5043;41.766;26.204;2022-09-03T05:53:32;14.02;;;12.55;;
10007;SDS011;5043;41.766;26.204;2022-09-03T05:56:00;12.63;;;11.35;;
10007;SDS011;5043;41.766;26.204;2022-09-03T05:58:33;13.43;;;11.88;;
10007;SDS011;5043;41.766;26.204;2022-09-03T06:00:59;13.07;;;11.32;;
10007;SDS011;5043;41.766;26.204;2022-09-03T06:03:41;13.40;;;12.00;;
10007;SDS011;5043;41.766;26.204;2022-09-03T06:06:08;13.75;;;12.43;;
10007;SDS011;5043;41.766;26.204;2022-09-03T06:08:34;13.90;;;11.85;;
10007;SDS011;5043;41.766;26.204;2022-09-03T06:11:02;14.18;;;12.68;;
10007;SDS011;5043;41.766;26.204;2022-09-03T06:13:29;13.95;;;12.55;;
10007;SDS011;5043;41.766;26.204;2022-09-03T06:15:59;17.48;;;13.73;;
10007;SDS011;5043;41.766;26.204;2022-09-03T06:18:26;15.75;;;13.07;;
10007;SDS011;5043;41.766;26.204;2022-09-03T06:20:56;15.55;;;14.02;;
10007;SDS011;5043;41.766;26.204;2022-09-03T06:23:23;13.90;;;12.38;;
10007;SDS011;5043;41.766;26.204;2022-09-03T06:26:06;16.67;;;12.23;;
10007;SDS011;5043;41.766;26.204;2022-09-03T06:28:36;14.60;;;13.15;;
10007;SDS011;5043;41.766;26.204;2022-09-03T06:31:04;14.38;;;12.93;;
10007;SDS011;5043;41.766;26.204;2022-09-03T06:33:32;13.30;;;12.10;;
10007;SDS011;5043;41.766;26.204;2022-09-03T06:35:59;13.23;;;12.02;;
10007;SDS011;5043;41.766;26.204;2022-09-03T06:38:27;13.65;;;11.38;;
10007;SDS011;5043;41.766;26.204;2022-09-03T06:40:59;12.38;;;11.27;;
10007;SDS011;5043;41.766;26.204;2022-09-03T06:43:27;12.98;;;11.77;;
10007;SDS011;5043;41.766;26.204;2022-09-03T06:45:55;16.00;;;12.32;;
10007;SDS011;5043;41.766;26.204;2022-09-03T06:48:22;15.80;;;11.85;;
10007;SDS011;5043;41.766;26.204;2022-09-03T06:51:00;12.95;;;11.65;;
10007;SDS011;5043;41.766;26.204;2022-09-03T06:53:31;14.00;;;11.73;;
10007;SDS011;5043;41.766;26.204;2022-09-03T06:55:59;17.40;;;12.43;;
10007;SDS011;5043;41.766;26.204;2022-09-03T06:58:33;26.70;;;15.55;;
10007;SDS011;5043;41.766;26.204;2022-09-03T07:01:05;13.55;;;11.82;;
10007;SDS011;5043;41.766;26.204;2022-09-03T07:03:35;11.57;;;10.57;;
10007;SDS011;5043;41.766;26.204;2022-09-03T07:06:02;18.38;;;12.07;;
10007;SDS011;5043;41.766;26.204;2022-09-03T07:08:30;13.10;;;10.65;;
10007;SDS011;5043;41.766;26.204;2022-09-03T07:11:00;16.77;;;10.70;;
10007;SDS011;5043;41.766;26.204;2022-09-03T07:13:29;10.82;;;9.73;;
10007;SDS011;5043;41.766;26.204;2022-09-03T07:16:03;10.40;;;9.30;;
10007;SDS011;5043;41.766;26.204;2022-09-03T07:18:30;10.40;;;9.48;;
10007;SDS011;5043;41.766;26.204;2022-09-03T07:20:59;17.35;;;9.95;;
10007;SDS011;5043;41.766;26.204;2022-09-03T07:23:26;60.63;;;16.55;;
10007;SDS011;5043;41.766;26.204;2022-09-03T07:25:54;16.20;;;9.85;;
10007;SDS011;5043;41.766;26.204;2022-09-03T07:28:24;9.85;;;8.98;;
10007;SDS011;5043;41.766;26.204;2022-09-03T07:30:51;15.70;;;9.43;;
10007;SDS011;5043;41.766;26.204;2022-09-03T07:33:17;10.43;;;9.52;;
10007;SDS011;5043;41.766;26.204;2022-09-03T07:35:43;9.75;;;8.85;;
10007;SDS011;5043;41.766;26.204;2022-09-03T07:38:09;14.30;;;10.23;;
10007;SDS011;5043;41.766;26.204;2022-09-03T07:40:35;18.65;;;11.18;;
10007;SDS011;5043;41.766;26.204;2022-09-03T07:43:03;12.38;;;10.93;;
10007;SDS011;5043;41.766;26.204;2022-09-03T07:45:29;11.65;;;10.55;;
10007;SDS011;5043;41.766;26.204;2022-09-03T07:47:56;144.57;;;29.05;;
10007;SDS011;5043;41.766;26.204;2022-09-03T07:50:22;12.32;;;10.05;;
10007;SDS011;5043;41.766;26.204;2022-09-03T07:52:48;23.95;;;11.77;;
10007;SDS011;5043;41.766;26.204;2022-09-03T07:55:13;45.30;;;14.98;;
10007;SDS011;5043;41.766;26.204;2022-09-03T07:57:39;63.10;;;15.57;;
10007;SDS011;5043;41.766;26.204;2022-09-03T08:00:05;13.13;;;10.55;;
10007;SDS011;5043;41.766;26.204;2022-09-03T08:02:34;11.02;;;9.93;;
10007;SDS011;5043;41.766;26.204;2022-09-03T08:04:59;38.08;;;12.85;;
10007;SDS011;5043;41.766;26.204;2022-09-03T08:07:25;13.05;;;11.55;;
10007;SDS011;5043;41.766;26.204;2022-09-03T08:09:52;27.15;;;13.00;;
10007;SDS011;5043;41.766;26.204;2022-09-03T08:12:18;13.20;;;11.73;;
10007;SDS011;5043;41.766;26.204;2022-09-03T08:14:43;16.42;;;11.80;;
10007;SDS011;5043;41.766;26.204;2022-09-03T08:17:09;64.82;;;18.20;;
10007;SDS011;5043;41.766;26.204;2022-09-03T08:19:36;187.75;;;36.05;;
10007;SDS011;5043;41.766;26.204;2022-09-03T08:22:02;18.17;;;12.73;;
10007;SDS011;5043;41.766;26.204;2022-09-03T08:24:27;112.57;;;26.27;;
10007;SDS011;5043;41.766;26.204;2022-09-03T08:26:53;14.60;;;13.10;;
10007;SDS011;5043;41.766;26.204;2022-09-03T08:29:19;16.55;;;13.15;;
10007;SDS011;5043;41.766;26.204;2022-09-03T08:31:45;14.70;;;13.02;;
10007;SDS011;5043;41.766;26.204;2022-09-03T08:34:11;15.40;;;12.65;;
10007;SDS011;5043;41.766;26.204;2022-09-03T08:36:38;13.15;;;11.90;;
10007;SDS011;5043;41.766;26.204;2022-09-03T08:39:08;14.07;;;12.65;;
10007;SDS011;5043;41.766;26.204;2022-09-03T08:41:41;14.65;;;13.25;;
10007;SDS011;5043;41.766;26.204;2022-09-03T08:44:30;14.18;;;12.82;;
10007;SDS011;5043;41.766;26.204;2022-09-03T08:55:52;14.82;;;12.80;;
10007;SDS011;5043;41.766;26.204;2022-09-03T08:58:24;13.73;;;12.45;;
10007;SDS011;5043;41.766;26.204;2022-09-03T09:01:12;13.63;;;12.45;;
10007;SDS011;5043;41.766;26.204;2022-09-03T09:15:11;11.07;;;9.98;;
10007;SDS011;5043;41.766;26.204;2022-09-03T09:18:00;11.30;;;10.27;;
10007;SDS011;5043;41.766;26.204;2022-09-03T09:20:38;10.82;;;9.77;;
10007;SDS011;5043;41.766;26.204;2022-09-03T09:23:42;10.82;;;9.50;;
10007;SDS011;5043;41.766;26.204;2022-09-03T09:26:05;11.15;;;10.15;;
10007;SDS011;5043;41.766;26.204;2022-09-03T09:28:35;11.02;;;10.00;;
10007;SDS011;5043;41.766;26.204;2022-09-03T09:31:03;11.65;;;10.00;;
10007;SDS011;5043;41.766;26.204;2022-09-03T09:33:32;14.80;;;9.65;;
10007;SDS011;5043;41.766;26.204;2022-09-03T09:35:58;9.50;;;8.60;;
10007;SDS011;5043;41.766;26.204;2022-09-03T09:38:37;10.00;;;8.75;;
10007;SDS011;5043;41.766;26.204;2022-09-03T09:41:13;12.07;;;9.30;;
10007;SDS011;5043;41.766;26.204;2022-09-03T09:43:44;8.85;;;8.00;;
10007;SDS011;5043;41.766;26.204;2022-09-03T09:46:20;18.50;;;9.88;;
10007;SDS011;5043;41.766;26.204;2022-09-03T09:48:52;12.40;;;8.15;;
10007;SDS011;5043;41.766;26.204;2022-09-03T09:51:21;9.10;;;7.93;;
10007;SDS011;5043;41.766;26.204;2022-09-03T09:53:47;13.50;;;9.02;;
10007;SDS011;5043;41.766;26.204;2022-09-03T09:56:24;16.92;;;13.40;;
10007;SDS011;5043;41.766;26.204;2022-09-03T09:59:00;15.70;;;8.95;;
10007;SDS011;5043;41.766;26.204;2022-09-03T10:01:30;9.45;;;8.18;;
10007;SDS011;5043;41.766;26.204;2022-09-03T10:03:57;71.72;;;17.27;;
10007;SDS011;5043;41.766;26.204;2022-09-03T10:06:25;9.85;;;8.27;;
10007;SDS011;5043;41.766;26.204;2022-09-03T10:09:16;8.32;;;7.43;;
10007;SDS011;5043;41.766;26.204;2022-09-03T10:11:44;10.90;;;7.68;;
10007;SDS011;5043;41.766;26.204;2022-09-03T10:17:25;13.43;;;7.88;;
10007;SDS011;5043;41.766;26.204;2022-09-03T10:25:43;16.50;;;8.70;;
10007;SDS011;5043;41.766;26.204;2022-09-03T10:28:17;18.85;;;8.93;;
10007;SDS011;5043;41.766;26.204;2022-09-03T10:33:23;13.18;;;7.57;;
10007;SDS011;5043;41.766;26.204;2022-09-03T10:38:40;34.58;;;22.10;;
10007;SDS011;5043;41.766;26.204;2022-09-03T10:47:00;35.67;;;10.68;;
10007;SDS011;5043;41.766;26.204;2022-09-03T11:01:09;8.57;;;6.53;;
10007;SDS011;5043;41.766;26.204;2022-09-03T11:04:00;7.75;;;5.85;;
10007;SDS011;5043;41.766;26.204;2022-09-03T11:06:45;10.38;;;6.85;;
10007;SDS011;5043;41.766;26.204;2022-09-03T11:12:05;7.53;;;5.78;;
10007;SDS011;5043;41.766;26.204;2022-09-03T11:15:00;7.80;;;6.18;;
10007;SDS011;5043;41.766;26.204;2022-09-03T11:17:48;12.93;;;6.10;;
10007;SDS011;5043;41.766;26.204;2022-09-03T11:20:25;7.05;;;5.80;;
10007;SDS011;5043;41.766;26.204;2022-09-03T11:23:01;14.90;;;7.05;;
10007;SDS011;5043;41.766;26.204;2022-09-03T11:25:36;9.93;;;6.25;;
10007;SDS011;5043;41.766;26.204;2022-09-03T11:28:22;5.53;;;5.03;;
10007;SDS011;5043;41.766;26.204;2022-09-03T11:31:12;11.55;;;5.78;;
10007;SDS011;5043;41.766;26.204;2022-09-03T11:33:44;13.35;;;6.57;;
10007;SDS011;5043;41.766;26.204;2022-09-03T11:36:35;18.90;;;6.75;;
10007;SDS011;5043;41.766;26.204;2022-09-03T11:39:12;8.57;;;5.43;;
10007;SDS011;5043;41.766;26.204;2022-09-03T11:41:44;5.65;;;5.03;;
10007;SDS011;5043;41.766;26.204;2022-09-03T11:44:21;10.40;;;5.65;;
10007;SDS011;5043;41.766;26.204;2022-09-03T11:46:57;119.35;;;23.27;;
10007;SDS011;5043;41.766;26.204;2022-09-03T11:49:30;75.57;;;13.50;;
10007;SDS011;5043;41.766;26.204;2022-09-03T11:52:03;6.80;;;5.65;;
10007;SDS011;5043;41.766;26.204;2022-09-03T11:54:44;6.25;;;5.70;;
10007;SDS011;5043;41.766;26.204;2022-09-03T11:57:12;74.68;;;15.45;;
10007;SDS011;5043;41.766;26.204;2022-09-03T11:59:40;14.40;;;6.57;;
10007;SDS011;5043;41.766;26.204;2022-09-03T12:02:29;37.10;;;7.90;;
10007;SDS011;5043;41.766;26.204;2022-09-03T12:07:33;14.90;;;7.05;;
10007;SDS011;5043;41.766;26.204;2022-09-03T12:18:49;6.00;;;5.43;;
10007;SDS011;5043;41.766;26.204;2022-09-03T12:21:22;4.53;;;4.13;;
10007;SDS011;5043;41.766;26.204;2022-09-03T12:23:51;7.38;;;5.53;;
10007;SDS011;5043;41.766;26.204;2022-09-03T12:26:19;10.07;;;6.10;;
10007;SDS011;5043;41.766;26.204;2022-09-03T12:28:53;20.35;;;6.50;;
10007;SDS011;5043;41.766;26.204;2022-09-03T12:31:29;6.50;;;4.80;;
10007;SDS011;5043;41.766;26.204;2022-09-03T12:34:01;6.30;;;5.78;;
10007;SDS011;5043;41.766;26.204;2022-09-03T12:36:41;6.47;;;5.82;;
10007;SDS011;5043;41.766;26.204;2022-09-03T12:39:18;7.18;;;5.85;;
10007;SDS011;5043;41.766;26.204;2022-09-03T12:41:54;7.22;;;5.85;;
10007;SDS011;5043;41.766;26.204;2022-09-03T12:44:32;6.95;;;5.80;;
10007;SDS011;5043;41.766;26.204;2022-09-03T12:47:09;6.80;;;6.10;;
10007;SDS011;5043;41.766;26.204;2022-09-03T12:49:39;7.53;;;6.00;;
10007;SDS011;5043;41.766;26.204;2022-09-03T12:55:07;7.75;;;6.20;;
10007;SDS011;5043;41.766;26.204;2022-09-03T12:58:37;10.45;;;5.85;;
10007;SDS011;5043;41.766;26.204;2022-09-03T13:00:36;7.25;;;6.65;;
10007;SDS011;5043;41.766;26.204;2022-09-03T13:05:43;7.07;;;6.38;;
10007;SDS011;5043;41.766;26.204;2022-09-03T13:08:14;130.93;;;23.27;;
10007;SDS011;5043;41.766;26.204;2022-09-03T13:10:48;8.00;;;6.38;;
10007;SDS011;5043;41.766;26.204;2022-09-03T13:15:59;7.28;;;6.65;;
10007;SDS011;5043;41.766;26.204;2022-09-03T13:18:43;6.80;;;6.22;;
10007;SDS011;5043;41.766;26.204;2022-09-03T13:29:24;7.55;;;6.85;;
10007;SDS011;5043;41.766;26.204;2022-09-03T13:35:03;6.60;;;6.10;;
10007;SDS011;5043;41.766;26.204;2022-09-03T13:40:18;6.40;;;5.93;;
10007;SDS011;5043;41.766;26.204;2022-09-03T13:42:57;8.60;;;6.15;;
10007;SDS011;5043;41.766;26.204;2022-09-03T13:45:47;7.90;;;6.82;;
10007;SDS011;5043;41.766;26.204;2022-09-03T13:48:49;8.93;;;6.25;;
10007;SDS011;5043;41.766;26.204;2022-09-03T13:51:49;7.20;;;6.50;;
10007;SDS011;5043;41.766;26.204;2022-09-03T13:54:30;14.70;;;11.52;;
10007;SDS011;5043;41.766;26.204;2022-09-03T13:57:03;6.88;;;6.25;;
10007;SDS011;5043;41.766;26.204;2022-09-03T13:59:48;6.88;;;6.30;;
10007;SDS011;5043;41.766;26.204;2022-09-03T14:13:47;7.28;;;6.57;;
10007;SDS011;5043;41.766;26.204;2022-09-03T14:19:32;4.60;;;4.20;;
10007;SDS011;5043;41.766;26.204;2022-09-03T14:25:16;4.07;;;3.78;;
10007;SDS011;5043;41.766;26.204;2022-09-03T14:27:44;4.15;;;3.72;;
10007;SDS011;5043;41.766;26.204;2022-09-03T14:32:54;3.60;;;3.30;;
10007;SDS011;5043;41.766;26.204;2022-09-03T14:38:29;3.85;;;3.45;;
10007;SDS011;5043;41.766;26.204;2022-09-03T15:00:42;3.88;;;3.00;;
10007;SDS011;5043;41.766;26.204;2022-09-03T15:03:21;3.67;;;3.42;;
10007;SDS011;5043;41.766;26.204;2022-09-03T15:11:54;3.95;;;3.22;;
10007;SDS011;5043;41.766;26.204;2022-09-03T15:14:55;4.88;;;3.05;;
10007;SDS011;5043;41.766;26.204;2022-09-03T15:36:50;3.08;;;2.58;;
10007;SDS011;5043;41.766;26.204;2022-09-03T15:39:25;2.72;;;2.53;;
10007;SDS011;5043;41.766;26.204;2022-09-03T15:44:26;2.78;;;2.58;;
10007;SDS011;5043;41.766;26.204;2022-09-03T15:47:04;2.85;;;2.65;;
10007;SDS011;5043;41.766;26.204;2022-09-03T15:52:29;11.80;;;2.63;;
10007;SDS011;5043;41.766;26.204;2022-09-03T15:55:09;2.78;;;2.42;;
10007;SDS011;5043;41.766;26.204;2022-09-03T15:58:00;3.10;;;2.70;;
10007;SDS011;5043;41.766;26.204;2022-09-03T16:01:10;5.45;;;2.50;;
10007;SDS011;5043;41.766;26.204;2022-09-03T16:09:17;3.10;;;2.42;;
10007;SDS011;5043;41.766;26.204;2022-09-03T16:15:19;2.63;;;2.40;;
10007;SDS011;5043;41.766;26.204;2022-09-03T16:18:08;5.20;;;2.83;;
10007;SDS011;5043;41.766;26.204;2022-09-03T16:23:31;2.83;;;2.63;;
10007;SDS011;5043;41.766;26.204;2022-09-03T16:26:02;3.65;;;2.92;;
10007;SDS011;5043;41.766;26.204;2022-09-03T16:28:34;2.83;;;2.60;;
10007;SDS011;5043;41.766;26.204;2022-09-03T16:31:14;6.00;;;2.58;;
10007;SDS011;5043;41.766;26.204;2022-09-03T16:42:57;2.92;;;2.72;;
10007;SDS011;5043;41.766;26.204;2022-09-03T16:45:52;2.83;;;2.63;;
10007;SDS011;5043;41.766;26.204;2022-09-03T16:51:53;4.50;;;2.85;;
10007;SDS011;5043;41.766;26.204;2022-09-03T17:00:08;3.28;;;2.50;;
10007;SDS011;5043;41.766;26.204;2022-09-03T17:02:51;4.43;;;2.65;;
10007;SDS011;5043;41.766;26.204;2022-09-03T17:11:05;2.83;;;2.65;;
10007;SDS011;5043;41.766;26.204;2022-09-03T17:13:58;2.78;;;2.63;;
10007;SDS011;5043;41.766;26.204;2022-09-03T17:16:44;3.75;;;2.72;;
10007;SDS011;5043;41.766;26.204;2022-09-03T17:22:03;2.92;;;2.63;;
10007;SDS011;5043;41.766;26.204;2022-09-03T17:24:37;3.40;;;2.55;;
10007;SDS011;5043;41.766;26.204;2022-09-03T17:27:19;3.47;;;2.70;;
10007;SDS011;5043;41.766;26.204;2022-09-03T17:30:09;2.80;;;2.55;;
10007;SDS011;5043;41.766;26.204;2022-09-03T17:35:57;3.13;;;2.80;;
10007;SDS011;5043;41.766;26.204;2022-09-03T17:38:53;2.70;;;2.50;;
10007;SDS011;5043;41.766;26.204;2022-09-03T17:50:41;5.43;;;2.95;;
10007;SDS011;5043;41.766;26.204;2022-09-03T17:58:35;4.20;;;3.45;;
10007;SDS011;5043;41.766;26.204;2022-09-03T18:03:53;3.20;;;3.00;;
10007;SDS011;5043;41.766;26.204;2022-09-03T18:11:36;4.43;;;2.90;;
10007;SDS011;5043;41.766;26.204;2022-09-03T18:14:16;3.92;;;2.78;;
10007;SDS011;5043;41.766;26.204;2022-09-03T18:22:35;3.03;;;2.83;;
10007;SDS011;5043;41.766;26.204;2022-09-03T18:25:29;3.15;;;2.95;;
10007;SDS011;5043;41.766;26.204;2022-09-03T18:28:16;3.33;;;3.03;;
10007;SDS011;5043;41.766;26.204;2022-09-03T18:31:11;3.42;;;2.92;;
10007;SDS011;5043;41.766;26.204;2022-09-03T18:33:59;4.03;;;2.95;;
10007;SDS011;5043;41.766;26.204;2022-09-03T18:36:45;3.97;;;3.00;;
10007;SDS011;5043;41.766;26.204;2022-09-03T18:39:30;2.90;;;2.70;;
10007;SDS011;5043;41.766;26.204;2022-09-03T18:57:23;2.97;;;2.78;;
10007;SDS011;5043;41.766;26.204;2022-09-03T19:00:13;3.03;;;2.72;;
10007;SDS011;5043;41.766;26.204;2022-09-03T19:11:29;3.65;;;2.83;;
10007;SDS011;5043;41.766;26.204;2022-09-03T19:14:27;3.08;;;2.88;;
10007;SDS011;5043;41.766;26.204;2022-09-03T19:17:30;11.02;;;3.22;;
10007;SDS011;5043;41.766;26.204;2022-09-03T19:20:28;3.50;;;2.40;;
10007;SDS011;5043;41.766;26.204;2022-09-03T19:23:14;3.00;;;2.80;;
10007;SDS011;5043;41.766;26.204;2022-09-03T19:26:04;3.05;;;2.70;;
10007;SDS011;5043;41.766;26.204;2022-09-03T19:28:59;3.97;;;2.55;;
10007;SDS011;5043;41.766;26.204;2022-09-03T19:31:52;2.50;;;2.30;;
10007;SDS011;5043;41.766;26.204;2022-09-03T19:35:09;4.30;;;2.63;;
10007;SDS011;5043;41.766;26.204;2022-09-03T19:38:09;2.78;;;2.58;;
10007;SDS011;5043;41.766;26.204;2022-09-03T19:46:58;3.92;;;2.50;;
10007;SDS011;5043;41.766;26.204;2022-09-03T19:53:02;2.33;;;2.22;;
10007;SDS011;5043;41.766;26.204;2022-09-03T19:55:54;2.50;;;2.30;;
10007;SDS011;5043;41.766;26.204;2022-09-03T19:58:41;2.80;;;2.60;;
10007;SDS011;5043;41.766;26.204;2022-09-03T20:01:34;3.13;;;2.92;;
10007;SDS011;5043;41.766;26.204;2022-09-03T20:04:23;2.80;;;2.60;;
10007;SDS011;5043;41.766;26.204;2022-09-03T20:07:12;3.17;;;2.97;;
10007;SDS011;5043;41.766;26.204;2022-09-03T20:09:57;2.50;;;2.30;;
10007;SDS011;5043;41.766;26.204;2022-09-03T20:13:04;3.08;;;2.83;;
10007;SDS011;5043;41.766;26.204;2022-09-03T20:21:05;2.42;;;2.33;;
10007;SDS011;5043;41.766;26.204;2022-09-03T20:26:54;2.58;;;2.38;;
10007;SDS011;5043;41.766;26.204;2022-09-03T20:52:17;2.60;;;2.40;;
10007;SDS011;5043;41.766;26.204;2022-09-03T21:00:34;2.60;;;2.40;;
10007;SDS011;5043;41.766;26.204;2022-09-03T21:06:10;2.90;;;2.70;;
10007;SDS011;5043;41.766;26.204;2022-09-03T21:11:12;2.55;;;2.35;;